createdAt,value
2019-04-05T00:02:17.503Z,19.87
2019-04-05T00:04:45.784Z,18.79
2019-04-05T00:07:14.694Z,20.36
2019-04-05T00:09:42.990Z,20.90
2019-04-05T00:12:11.310Z,21.52
2019-04-05T00:14:39.602Z,19.44
2019-04-05T00:17:07.875Z,20.98
2019-04-05T00:19:36.155Z,21.90
2019-04-05T00:22:04.483Z,21.10
2019-04-05T00:24:32.776Z,21.13
2019-04-05T00:27:01.037Z,20.23
2019-04-05T00:29:34.018Z,20.72
2019-04-05T00:32:03.122Z,19.05
2019-04-05T00:34:31.706Z,20.65
2019-04-05T00:37:00.117Z,20.85
2019-04-05T00:39:28.379Z,22.19
2019-04-05T00:41:56.771Z,22.05
2019-04-05T00:44:25.040Z,21.21
2019-04-05T00:46:53.383Z,21.61
2019-04-05T00:49:21.643Z,22.89
2019-04-05T00:51:50.027Z,21.43
2019-04-05T00:54:18.500Z,21.77
2019-04-05T00:56:46.784Z,22.24
2019-04-05T00:59:15.070Z,22.98
2019-04-05T01:01:44.251Z,22.86
2019-04-05T01:04:12.529Z,21.66
2019-04-05T01:06:40.875Z,22.24
2019-04-05T01:09:09.420Z,21.29
2019-04-05T01:11:37.778Z,21.94
2019-04-05T01:14:06.110Z,21.34
2019-04-05T01:16:34.583Z,22.08
2019-04-05T01:19:04.166Z,21.45
2019-04-05T01:21:35.748Z,21.03
2019-04-05T01:24:04.788Z,21.51
2019-04-05T01:26:33.055Z,21.46
2019-04-05T01:29:01.359Z,22.11
2019-04-05T01:31:29.630Z,21.87
2019-04-05T01:33:57.965Z,21.90
2019-04-05T01:36:26.224Z,21.43
2019-04-05T01:38:54.493Z,22.00
2019-04-05T01:41:22.853Z,21.36
2019-04-05T01:43:51.134Z,22.20
2019-04-05T01:46:19.415Z,22.68
2019-04-05T01:48:47.672Z,22.41
2019-04-05T01:51:16.010Z,22.67
2019-04-05T01:53:44.342Z,22.61
2019-04-05T01:56:12.624Z,22.86
2019-04-05T01:58:40.879Z,22.80
2019-04-05T02:01:09.154Z,22.24
2019-04-05T02:03:37.437Z,23.20
2019-04-05T02:06:05.783Z,23.57
2019-04-05T02:08:34.124Z,22.63
2019-04-05T02:11:02.615Z,23.40
2019-04-05T02:13:30.947Z,22.11
2019-04-05T02:16:06.146Z,22.38
2019-04-05T02:18:29.306Z,22.82
2019-04-05T02:20:57.605Z,22.04
2019-04-05T02:23:25.898Z,22.82
2019-04-05T02:25:54.238Z,23.06
2019-04-05T02:28:25.246Z,23.48
2019-04-05T02:30:52.507Z,23.62
2019-04-05T02:33:20.815Z,22.33
2019-04-05T02:35:49.132Z,23.07
2019-04-05T02:38:17.460Z,23.22
2019-04-05T02:40:46.597Z,22.38
2019-04-05T02:43:16.471Z,22.31
2019-04-05T02:45:46.240Z,21.79
2019-04-05T02:48:14.621Z,22.46
2019-04-05T02:50:46.109Z,22.12
2019-04-05T02:53:15.923Z,23.38
2019-04-05T02:55:44.754Z,22.86
2019-04-05T02:58:13.306Z,22.85
2019-04-05T03:00:42.215Z,21.24
2019-04-05T03:03:11.067Z,22.15
2019-04-05T03:05:39.398Z,22.66
2019-04-05T03:08:08.719Z,21.30
2019-04-05T03:10:58.253Z,22.35
2019-04-05T03:13:31.567Z,21.23
2019-04-05T03:16:01.872Z,21.67
2019-04-05T03:18:31.682Z,21.37
2019-04-05T03:21:03.372Z,21.77
2019-04-05T03:23:34.226Z,21.84
2019-04-05T03:26:04.927Z,20.27
2019-04-05T03:28:35.861Z,20.38
2019-04-05T03:31:04.199Z,20.14
2019-04-05T03:33:32.898Z,19.73
2019-04-05T03:36:01.545Z,19.06
2019-04-05T03:38:29.875Z,19.53
2019-04-05T03:40:58.276Z,19.98
2019-04-05T03:43:26.599Z,18.71
2019-04-05T03:45:54.871Z,19.21
2019-04-05T03:48:23.154Z,19.73
2019-04-05T03:50:51.454Z,19.02
2019-04-05T03:53:19.787Z,19.72
2019-04-05T03:55:48.135Z,19.13
2019-04-05T03:58:16.604Z,19.31
2019-04-05T04:00:44.935Z,19.95
2019-04-05T04:03:13.662Z,18.95
2019-04-05T04:05:42.318Z,19.75
2019-04-05T04:08:11.344Z,20.09
2019-04-05T04:10:39.638Z,19.37
2019-04-05T04:13:07.990Z,19.53
2019-04-05T04:15:36.364Z,19.31
2019-04-05T04:18:05.001Z,20.24
2019-04-05T04:20:42.698Z,20.33
2019-04-05T04:23:11.280Z,20.44
2019-04-05T04:25:40.495Z,20.99
2019-04-05T04:28:09.131Z,19.16
2019-04-05T04:30:37.864Z,19.84
2019-04-05T04:33:06.724Z,21.45
2019-04-05T04:35:36.028Z,20.45
2019-04-05T04:38:04.855Z,20.50
2019-04-05T04:40:33.169Z,21.19
2019-04-05T04:43:01.631Z,22.05
2019-04-05T04:47:58.244Z,21.96
2019-04-05T04:50:26.915Z,22.43
2019-04-05T04:52:55.246Z,22.56
2019-04-05T04:55:23.601Z,22.86
2019-04-05T04:57:52.376Z,22.49
2019-04-05T05:00:20.983Z,21.01
2019-04-05T05:02:49.255Z,22.34
2019-04-05T05:05:17.947Z,22.93
2019-04-05T05:07:46.313Z,21.58
2019-04-05T05:10:14.906Z,21.73
2019-04-05T05:12:43.254Z,22.58
2019-04-05T05:15:11.690Z,20.63
2019-04-05T05:17:39.975Z,20.26
2019-04-05T05:20:09.405Z,20.04
2019-04-05T05:22:37.742Z,19.97
2019-04-05T05:25:06.958Z,22.26
2019-04-05T05:27:35.306Z,22.01
2019-04-05T05:30:05.795Z,20.23
2019-04-05T05:32:34.440Z,20.23
2019-04-05T05:35:02.886Z,20.81
2019-04-05T05:37:32.856Z,21.11
2019-04-05T05:40:01.389Z,21.20
2019-04-05T05:42:29.712Z,22.07
2019-04-05T05:44:58.069Z,22.64
2019-04-05T05:47:26.380Z,21.50
2019-04-05T05:49:54.649Z,20.80
2019-04-05T05:52:23.205Z,21.90
2019-04-05T05:54:51.469Z,19.86
2019-04-05T05:57:19.749Z,19.96
2019-04-05T05:59:48.018Z,19.73
2019-04-05T06:02:16.386Z,19.78
2019-04-05T06:04:44.713Z,20.13
2019-04-05T06:07:12.995Z,20.60
2019-04-05T06:09:41.274Z,20.75
2019-04-05T06:12:09.545Z,21.07
2019-04-05T06:14:37.818Z,19.62
2019-04-05T06:17:06.153Z,19.44
2019-04-05T06:19:34.427Z,20.43
2019-04-05T06:22:02.685Z,19.12
2019-04-05T06:24:30.956Z,20.35
2019-04-05T06:26:59.302Z,22.06
2019-04-05T06:29:27.571Z,21.49
2019-04-05T06:31:55.840Z,20.27
2019-04-05T06:34:24.201Z,21.31
2019-04-05T06:36:52.527Z,21.00
2019-04-05T06:39:20.970Z,21.76
2019-04-05T06:41:49.305Z,22.20
2019-04-05T06:44:17.564Z,21.61
2019-04-05T06:46:45.843Z,20.53
2019-04-05T06:49:14.112Z,20.16
2019-04-05T06:51:42.389Z,19.48
2019-04-05T06:54:10.689Z,21.27
2019-04-05T06:56:38.945Z,20.74
2019-04-05T06:59:07.227Z,21.23
2019-04-05T07:01:35.487Z,22.84
2019-04-05T07:04:03.850Z,22.97
2019-04-05T07:06:32.128Z,20.95
2019-04-05T07:09:00.398Z,21.80
2019-04-05T07:11:29.711Z,23.02
2019-04-05T07:13:59.493Z,23.67
2019-04-05T07:16:27.988Z,21.73
2019-04-05T07:18:56.243Z,21.90
2019-04-05T07:21:24.529Z,23.03
2019-04-05T07:23:52.792Z,22.76
2019-04-05T07:26:21.290Z,22.05
2019-04-05T07:28:49.717Z,22.11
2019-04-05T07:31:17.991Z,23.00
2019-04-05T07:33:46.272Z,23.12
2019-04-05T07:36:14.530Z,23.10
2019-04-05T07:38:42.799Z,22.96
2019-04-05T07:41:11.087Z,22.48
2019-04-05T07:43:39.354Z,22.36
2019-04-05T07:46:07.624Z,23.03
2019-04-05T07:48:44.611Z,22.99
2019-04-05T07:51:05.866Z,22.87
2019-04-05T07:53:34.150Z,23.43
2019-04-05T07:56:02.492Z,23.63
2019-04-05T07:58:30.769Z,23.16
2019-04-05T08:00:59.047Z,22.84
2019-04-05T08:03:27.446Z,21.70
2019-04-05T08:05:55.713Z,22.19
2019-04-05T08:08:32.949Z,22.35
2019-04-05T08:11:01.282Z,22.67
2019-04-05T08:13:30.242Z,22.01
2019-04-05T08:16:01.319Z,22.69
2019-04-05T08:18:29.823Z,21.76
2019-04-05T08:20:58.082Z,21.86
2019-04-05T08:23:26.410Z,21.50
2019-04-05T08:25:54.746Z,21.35
2019-04-05T08:28:23.032Z,23.56
2019-04-05T08:30:51.291Z,23.49
2019-04-05T08:33:19.549Z,22.50
2019-04-05T08:35:47.915Z,22.75
2019-04-05T08:38:16.201Z,22.78
2019-04-05T08:40:44.477Z,22.99
2019-04-05T08:43:12.759Z,23.00
2019-04-05T08:45:41.034Z,22.58
2019-04-05T08:48:09.303Z,21.76
2019-04-05T08:50:38.177Z,23.00
2019-04-05T08:53:06.451Z,23.58
2019-04-05T08:55:34.737Z,24.21
2019-04-05T08:58:02.999Z,23.62
2019-04-05T09:00:31.301Z,23.96
2019-04-05T09:02:59.601Z,24.03
2019-04-05T09:05:27.878Z,24.32
2019-04-05T09:07:56.148Z,24.04
2019-04-05T09:10:24.407Z,23.84
2019-04-05T09:12:52.698Z,24.34
2019-04-05T09:15:20.971Z,24.64
2019-04-05T09:17:49.316Z,24.65
2019-04-05T09:20:17.594Z,24.61
2019-04-05T09:22:45.879Z,24.23
2019-04-05T09:25:14.232Z,24.71
2019-04-05T09:27:42.524Z,24.05
2019-04-05T09:30:11.087Z,24.69
2019-04-05T09:32:39.614Z,24.06
2019-04-05T09:35:08.248Z,24.04
2019-04-05T09:37:36.542Z,24.38
2019-04-05T09:40:06.412Z,24.42
2019-04-05T09:42:34.752Z,24.73
2019-04-05T09:45:03.412Z,24.23
2019-04-05T09:47:31.714Z,24.75
2019-04-05T09:50:00.010Z,24.44
2019-04-05T09:52:28.332Z,23.76
2019-04-05T09:54:56.599Z,24.40
2019-04-05T09:57:24.905Z,25.06
2019-04-05T09:59:53.277Z,25.29
2019-04-05T10:02:21.541Z,25.06
2019-04-05T10:04:49.798Z,24.16
2019-04-05T10:07:18.151Z,23.61
2019-04-05T10:09:46.410Z,23.66
2019-04-05T10:12:14.702Z,24.66
2019-04-05T10:14:42.986Z,24.74
2019-04-05T10:17:11.264Z,22.20
2019-04-05T10:19:49.391Z,24.31
2019-04-05T10:22:09.514Z,24.97
2019-04-05T10:24:37.824Z,23.62
2019-04-05T10:27:06.110Z,24.47
2019-04-05T10:29:34.415Z,24.18
2019-04-05T10:32:02.784Z,24.97
2019-04-05T10:34:31.081Z,25.04
2019-04-05T10:36:59.377Z,25.23
2019-04-05T10:39:27.733Z,24.70
2019-04-05T10:42:03.359Z,24.85
2019-04-05T10:44:26.046Z,24.91
2019-04-05T10:46:54.358Z,25.39
2019-04-05T10:49:22.601Z,25.06
2019-04-05T10:51:50.906Z,24.72
2019-04-05T10:54:19.205Z,25.06
2019-04-05T10:56:47.472Z,24.39
2019-04-05T10:59:16.030Z,24.43
2019-04-05T11:01:44.321Z,24.86
2019-04-05T11:04:12.689Z,25.22
2019-04-05T11:06:41.086Z,24.87
2019-04-05T11:09:09.628Z,24.65
2019-04-05T11:11:37.923Z,24.99
2019-04-05T11:14:13.749Z,24.55
2019-04-05T11:16:36.223Z,24.07
2019-04-05T11:19:04.586Z,23.37
2019-04-05T11:21:32.861Z,25.09
2019-04-05T11:24:01.229Z,25.02
2019-04-05T11:26:29.523Z,24.58
2019-04-05T11:28:57.798Z,24.89
2019-04-05T11:31:26.075Z,25.03
2019-04-05T11:33:54.910Z,25.59
2019-04-05T11:36:24.903Z,25.27
2019-04-05T11:38:53.365Z,25.52
2019-04-05T11:41:23.187Z,25.63
2019-04-05T11:43:52.518Z,26.19
2019-04-05T11:46:20.996Z,25.30
2019-04-05T11:48:49.548Z,25.95
2019-04-05T11:51:17.913Z,25.06
2019-04-05T11:53:46.166Z,25.61
2019-04-05T11:56:15.473Z,25.59
2019-04-05T11:58:48.800Z,25.34
2019-04-05T12:01:19.059Z,25.89
2019-04-05T12:03:47.387Z,25.98
2019-04-05T12:06:15.676Z,25.67
2019-04-05T12:08:43.936Z,26.10
2019-04-05T12:11:12.289Z,25.82
2019-04-05T12:13:40.575Z,26.12
2019-04-05T12:16:10.433Z,25.90
2019-04-05T12:18:38.822Z,24.64
2019-04-05T12:21:07.101Z,25.28
2019-04-05T12:23:37.117Z,25.29
2019-04-05T12:26:05.488Z,25.69
2019-04-05T12:28:33.766Z,25.76
2019-04-05T12:31:02.113Z,26.11
2019-04-05T12:33:30.389Z,25.23
2019-04-05T12:35:58.682Z,25.65
2019-04-05T12:38:35.725Z,25.34
2019-04-05T12:41:04.648Z,24.69
2019-04-05T12:43:33.064Z,25.00
2019-04-05T12:46:03.132Z,25.53
2019-04-05T12:48:31.414Z,25.37
2019-04-05T12:51:01.207Z,25.50
2019-04-05T12:53:29.936Z,25.54
2019-04-05T12:55:58.181Z,25.29
2019-04-05T12:58:26.754Z,25.45
2019-04-05T13:00:56.194Z,24.56
2019-04-05T13:03:25.221Z,24.98
2019-04-05T13:05:53.493Z,25.07
2019-04-05T13:08:23.622Z,24.37
2019-04-05T13:10:55.516Z,24.28
2019-04-05T13:13:21.781Z,25.58
2019-04-05T13:15:50.031Z,24.93
2019-04-05T13:18:18.319Z,25.69
2019-04-05T13:20:46.606Z,24.67
2019-04-05T13:23:14.960Z,25.56
2019-04-05T13:25:43.245Z,25.79
2019-04-05T13:28:13.428Z,25.51
2019-04-05T13:30:41.535Z,25.81
2019-04-05T13:33:09.790Z,25.85
2019-04-05T13:35:38.089Z,25.42
2019-04-05T13:38:06.373Z,24.97
2019-04-05T13:40:34.646Z,24.60
2019-04-05T13:43:03.015Z,24.72
2019-04-05T13:45:31.394Z,23.98
2019-04-05T13:47:59.687Z,25.17
2019-04-05T13:50:27.951Z,25.24
2019-04-05T13:52:56.242Z,25.59
2019-04-05T13:55:24.514Z,24.11
2019-04-05T13:57:52.799Z,25.37
2019-04-05T14:00:21.449Z,25.98
2019-04-05T14:02:50.765Z,25.95
2019-04-05T14:05:22.283Z,25.07
2019-04-05T14:07:49.964Z,24.47
2019-04-05T14:10:18.313Z,24.67
2019-04-05T14:12:46.605Z,23.72
2019-04-05T14:15:16.070Z,24.49
2019-04-05T14:17:44.946Z,25.05
2019-04-05T14:20:13.418Z,24.55
2019-04-05T14:22:41.704Z,24.72
2019-04-05T14:25:10.537Z,25.04
2019-04-05T14:27:38.828Z,25.53
2019-04-05T14:30:07.541Z,25.57
2019-04-05T14:32:35.827Z,25.97
2019-04-05T14:35:07.901Z,25.81
2019-04-05T14:37:36.317Z,25.55
2019-04-05T14:40:06.302Z,25.21
2019-04-05T14:42:34.569Z,25.11
2019-04-05T14:45:03.440Z,23.58
2019-04-05T14:47:31.750Z,24.92
2019-04-05T14:50:00.970Z,24.72
2019-04-05T14:52:31.171Z,25.01
2019-04-05T14:54:59.962Z,25.19
2019-04-05T14:57:28.980Z,25.70
2019-04-05T14:59:57.234Z,25.20
2019-04-05T15:02:25.503Z,25.27
2019-04-05T15:04:53.786Z,24.58
2019-04-05T15:07:22.120Z,24.71
2019-04-05T15:09:50.470Z,24.97
2019-04-05T15:12:18.764Z,23.59
2019-04-05T15:14:47.057Z,23.88
2019-04-05T15:17:15.772Z,22.96
2019-04-05T15:19:44.116Z,24.81
2019-04-05T15:22:12.408Z,25.09
2019-04-05T15:24:40.675Z,23.69
2019-04-05T15:27:08.954Z,25.04
2019-04-05T15:29:37.215Z,24.85
2019-04-05T15:32:06.555Z,24.62
2019-04-05T15:34:34.850Z,24.89
2019-04-05T15:37:03.112Z,25.12
2019-04-05T15:39:32.168Z,25.52
2019-04-05T15:42:00.578Z,24.94
2019-04-05T15:44:28.856Z,25.12
2019-04-05T15:46:57.130Z,25.38
2019-04-05T15:49:25.405Z,23.33
2019-04-05T15:51:55.125Z,23.66
2019-04-05T15:54:23.702Z,24.74
2019-04-05T15:56:51.956Z,24.10
2019-04-05T15:59:21.842Z,24.37
2019-04-05T16:01:50.411Z,24.77
2019-04-05T16:04:18.694Z,24.16
2019-04-05T16:06:47.004Z,24.97
2019-04-05T16:09:16.903Z,25.07
2019-04-05T16:11:45.253Z,24.70
2019-04-05T16:14:13.540Z,24.30
2019-04-05T16:16:41.816Z,24.83
2019-04-05T16:19:10.138Z,24.93
2019-04-05T16:21:38.419Z,24.67
2019-04-05T16:24:06.724Z,24.48
2019-04-05T16:26:34.986Z,23.56
2019-04-05T16:29:03.349Z,23.51
2019-04-05T16:31:31.730Z,23.75
2019-04-05T16:34:00.004Z,24.17
2019-04-05T16:36:30.893Z,24.26
2019-04-05T16:38:58.416Z,24.72
2019-04-05T16:41:26.696Z,24.61
2019-04-05T16:43:54.961Z,23.93
2019-04-05T16:46:23.252Z,24.55
2019-04-05T16:48:51.541Z,24.66
2019-04-05T16:51:19.809Z,24.33
2019-04-05T16:54:01.022Z,24.60
2019-04-05T16:56:29.675Z,22.73
2019-04-05T16:58:58.326Z,23.71
2019-04-05T17:01:27.691Z,24.17
2019-04-05T17:03:56.200Z,24.57
2019-04-05T17:06:30.396Z,25.08
2019-04-05T17:08:58.673Z,25.28
2019-04-05T17:11:26.977Z,24.81
2019-04-05T17:13:59.386Z,24.30
2019-04-05T17:16:25.265Z,22.31
2019-04-05T17:18:53.558Z,21.82
2019-04-05T17:21:21.849Z,22.26
2019-04-05T17:23:50.135Z,21.21
2019-04-05T17:26:18.441Z,21.66
2019-04-05T17:28:46.728Z,21.13
2019-04-05T17:31:14.994Z,21.02
2019-04-05T17:33:43.326Z,21.92
2019-04-05T17:36:11.605Z,21.50
2019-04-05T17:38:39.885Z,21.30
2019-04-05T17:41:08.151Z,21.26
2019-04-05T17:43:36.459Z,21.94
2019-04-05T17:46:04.836Z,21.74
2019-04-05T17:48:33.131Z,21.41
2019-04-05T17:51:01.536Z,21.70
2019-04-05T17:53:29.816Z,22.54
2019-04-05T17:55:59.133Z,22.12
2019-04-05T17:58:28.831Z,20.85
2019-04-05T18:00:57.253Z,21.53
2019-04-05T18:03:25.704Z,22.29
2019-04-05T18:05:53.998Z,24.53
2019-04-05T18:08:22.252Z,24.89
2019-04-05T18:10:50.568Z,24.95
2019-04-05T18:13:18.853Z,24.38
2019-04-05T18:15:52.844Z,25.03
2019-04-05T18:18:17.163Z,24.90
2019-04-05T18:20:45.585Z,24.99
2019-04-05T18:23:24.411Z,25.02
2019-04-05T18:25:43.958Z,25.04
2019-04-05T18:28:12.245Z,25.17
2019-04-05T18:30:43.956Z,25.59
2019-04-05T18:33:12.433Z,24.73
2019-04-05T18:35:40.694Z,23.97
2019-04-05T18:38:09.333Z,23.76
2019-04-05T18:40:40.250Z,24.44
2019-04-05T18:43:07.678Z,23.86
2019-04-05T18:45:35.989Z,23.72
2019-04-05T18:48:04.328Z,24.68
2019-04-05T18:50:32.597Z,24.67
2019-04-05T18:53:00.882Z,24.64
2019-04-05T18:55:29.139Z,25.01
2019-04-05T18:57:57.418Z,24.58
2019-04-05T19:00:25.697Z,24.98
2019-04-05T19:02:53.969Z,24.63
2019-04-05T19:05:22.275Z,24.73
2019-04-05T19:07:50.554Z,24.57
2019-04-05T19:10:18.844Z,24.86
2019-04-05T19:12:47.371Z,24.28
2019-04-05T19:15:15.820Z,24.83
2019-04-05T19:17:44.118Z,24.68
2019-04-05T19:20:12.399Z,23.41
2019-04-05T19:22:40.703Z,24.49
2019-04-05T19:25:08.980Z,24.23
2019-04-05T19:27:37.251Z,24.60
2019-04-05T19:50:08.422Z,23.99
2019-04-05T19:52:38.182Z,23.92
2019-04-05T19:55:06.854Z,23.60
2019-04-05T19:57:35.187Z,23.73
2019-04-05T20:00:04.697Z,23.94
2019-04-05T20:02:32.974Z,24.04
2019-04-05T20:05:01.259Z,24.48
2019-04-05T20:07:29.558Z,22.87
2019-04-05T20:09:57.817Z,23.32
2019-04-05T20:12:26.120Z,22.74
2019-04-05T20:14:54.411Z,23.48
2019-04-05T20:17:22.677Z,24.23
2019-04-05T20:19:51.066Z,23.46
2019-04-05T20:22:19.476Z,24.85
2019-04-05T20:24:47.753Z,24.06
2019-04-05T20:27:16.049Z,24.62
2019-04-05T20:29:44.306Z,24.38
2019-04-05T20:32:12.574Z,23.68
2019-04-05T20:34:40.883Z,23.06
2019-04-05T20:37:09.141Z,24.38
2019-04-05T20:39:37.430Z,25.05
2019-04-05T20:42:06.688Z,25.46
2019-04-05T20:44:34.983Z,25.63
2019-04-05T20:47:03.293Z,24.27
2019-04-05T20:49:31.569Z,24.21
2019-04-05T20:51:59.924Z,24.27
2019-04-05T20:54:28.306Z,22.44
2019-04-05T20:56:56.589Z,23.92
2019-04-05T20:59:24.853Z,24.82
2019-04-05T21:01:53.176Z,25.01
2019-04-05T21:04:21.442Z,24.56
2019-04-05T21:06:49.764Z,24.96
2019-04-05T21:09:18.056Z,24.57
2019-04-05T21:11:46.329Z,24.49
2019-04-05T21:14:14.605Z,24.39
2019-04-05T21:16:42.939Z,24.74
2019-04-05T21:19:11.252Z,24.59
2019-04-05T21:21:39.606Z,24.27
2019-04-05T21:24:07.914Z,25.13
2019-04-05T21:26:36.273Z,25.48
2019-04-05T21:29:04.556Z,24.95
2019-04-05T21:31:32.843Z,24.61
2019-04-05T21:34:01.124Z,24.96
2019-04-05T21:36:29.419Z,25.13
2019-04-05T21:38:57.696Z,24.98
2019-04-05T21:41:25.998Z,24.68
2019-04-05T21:43:54.267Z,25.08
2019-04-05T21:46:22.595Z,24.93
2019-04-05T21:48:50.857Z,24.54
2019-04-05T21:51:19.123Z,24.49
2019-04-05T21:53:47.569Z,24.82
2019-04-05T21:56:15.766Z,24.97
2019-04-05T21:58:44.045Z,25.51
2019-04-05T22:01:12.750Z,24.97
2019-04-05T22:03:41.036Z,25.06
2019-04-05T22:06:09.373Z,24.84
2019-04-05T22:08:37.645Z,25.30
2019-04-05T22:11:06.414Z,25.26
2019-04-05T22:13:34.678Z,25.06
2019-04-05T22:16:02.980Z,25.34
2019-04-05T22:18:31.329Z,25.29
2019-04-05T22:21:02.600Z,24.67
2019-04-05T22:23:30.888Z,24.42
2019-04-05T22:25:59.233Z,25.10
2019-04-05T22:28:27.520Z,24.39
2019-04-05T22:30:55.807Z,23.78
2019-04-05T22:33:24.222Z,24.66
2019-04-05T22:35:52.504Z,24.65
2019-04-05T22:38:20.850Z,24.59
2019-04-05T22:40:49.122Z,25.24
2019-04-05T22:43:17.410Z,24.72
2019-04-05T22:45:45.717Z,24.14
2019-04-05T22:48:13.985Z,24.26
2019-04-05T22:50:42.286Z,24.32
2019-04-05T22:53:10.544Z,24.87
2019-04-05T22:55:38.809Z,24.73
2019-04-05T22:58:07.180Z,24.49
2019-04-05T23:00:35.472Z,24.30
2019-04-05T23:03:03.730Z,24.74
2019-04-05T23:05:32.016Z,24.29
2019-04-05T23:08:00.296Z,24.20
2019-04-05T23:10:28.577Z,24.67
2019-04-05T23:12:56.857Z,24.67
2019-04-05T23:15:25.159Z,24.92
2019-04-05T23:17:53.503Z,24.56
2019-04-05T23:20:21.774Z,23.58
2019-04-05T23:22:50.051Z,24.50
2019-04-05T23:25:22.059Z,24.57
2019-04-05T23:27:48.413Z,24.67
2019-04-05T23:30:17.898Z,24.89
2019-04-05T23:32:46.166Z,23.87
2019-04-05T23:35:14.441Z,24.78
2019-04-05T23:37:42.711Z,24.10
2019-04-05T23:40:11.117Z,24.29
2019-04-05T23:42:39.466Z,24.80
2019-04-05T23:45:07.876Z,24.63
2019-04-05T23:47:36.146Z,24.57
2019-04-05T23:50:05.470Z,24.36
2019-04-05T23:52:33.756Z,24.26
2019-04-05T23:55:02.034Z,24.02
2019-04-05T23:57:30.317Z,24.07
2019-04-05T23:59:58.598Z,24.35
